createdAt,value
2022-08-25T00:00:55.239Z,99.90
2022-08-25T00:02:58.290Z,99.90
2022-08-25T00:05:00.786Z,99.90
2022-08-25T00:07:05.757Z,99.90
2022-08-25T00:09:09.134Z,99.90
2022-08-25T00:11:21.140Z,99.90
2022-08-25T00:13:23.470Z,99.90
2022-08-25T00:15:29.464Z,99.90
2022-08-25T00:17:31.450Z,99.90
2022-08-25T00:19:36.304Z,99.90
2022-08-25T00:21:40.374Z,99.90
2022-08-25T00:23:43.765Z,99.90
2022-08-25T00:25:46.167Z,99.90
2022-08-25T00:27:48.214Z,99.90
2022-08-25T00:29:51.105Z,99.90
2022-08-25T00:31:56.697Z,99.90
2022-08-25T00:33:58.984Z,99.80
2022-08-25T00:36:01.573Z,99.50
2022-08-25T00:38:04.197Z,99.10
2022-08-25T00:40:07.306Z,98.70
2022-08-25T00:42:11.780Z,98.30
2022-08-25T00:44:19.755Z,98.10
2022-08-25T00:46:29.322Z,97.90
2022-08-25T00:48:32.414Z,97.70
2022-08-25T00:50:37.082Z,97.50
2022-08-25T00:52:49.681Z,97.30
2022-08-25T00:54:56.695Z,97.10
2022-08-25T00:57:00.301Z,96.90
2022-08-25T00:59:04.374Z,96.60
2022-08-25T01:01:08.141Z,96.50
2022-08-25T01:03:11.323Z,96.30
2022-08-25T01:05:13.603Z,96.20
2022-08-25T01:07:18.836Z,96.10
2022-08-25T01:09:23.498Z,96.00
2022-08-25T01:11:27.849Z,96.00
2022-08-25T01:13:35.359Z,95.90
2022-08-25T01:15:37.915Z,95.80
2022-08-25T01:17:49.216Z,95.70
2022-08-25T01:19:51.191Z,95.70
2022-08-25T01:21:54.452Z,95.70
2022-08-25T01:23:58.583Z,95.70
2022-08-25T01:26:30.548Z,95.80
2022-08-25T01:28:35.050Z,95.80
2022-08-25T01:30:39.850Z,95.90
2022-08-25T01:32:41.829Z,95.80
2022-08-25T01:34:45.550Z,95.90
2022-08-25T01:36:48.142Z,95.70
2022-08-25T01:38:50.584Z,95.70
2022-08-25T01:40:52.899Z,95.70
2022-08-25T01:43:31.796Z,95.80
2022-08-25T01:45:35.137Z,95.50
2022-08-25T01:47:38.628Z,95.60
2022-08-25T01:49:41.109Z,95.60
2022-08-25T01:51:47.513Z,95.60
2022-08-25T01:53:51.141Z,95.60
2022-08-25T01:55:54.421Z,95.70
2022-08-25T01:57:58.984Z,95.60
2022-08-25T02:00:01.870Z,95.40
2022-08-25T02:02:07.045Z,95.30
2022-08-25T02:04:09.585Z,95.30
2022-08-25T02:06:28.846Z,95.40
2022-08-25T02:08:32.894Z,95.40
2022-08-25T02:10:35.401Z,95.40
2022-08-25T02:12:37.895Z,95.30
2022-08-25T02:14:40.175Z,95.40
2022-08-25T02:16:48.615Z,95.50
2022-08-25T02:18:50.911Z,95.60
2022-08-25T02:20:53.195Z,95.60
2022-08-25T02:22:57.162Z,95.50
2022-08-25T02:24:59.929Z,95.50
2022-08-25T02:27:04.041Z,95.80
2022-08-25T02:29:06.730Z,95.60
2022-08-25T02:31:09.920Z,96.20
2022-08-25T02:33:12.105Z,95.60
2022-08-25T02:35:14.118Z,95.60
2022-08-25T02:37:16.154Z,95.60
2022-08-25T02:39:18.184Z,95.80
2022-08-25T02:41:30.737Z,95.70
2022-08-25T02:43:33.749Z,95.80
2022-08-25T02:45:36.843Z,95.90
2022-08-25T02:47:38.819Z,95.80
2022-08-25T02:49:40.812Z,95.80
2022-08-25T02:51:43.997Z,95.60
2022-08-25T02:53:47.151Z,95.80
2022-08-25T02:55:49.201Z,95.70
2022-08-25T02:57:51.680Z,95.70
2022-08-25T02:59:54.510Z,95.60
2022-08-25T03:01:56.645Z,95.60
2022-08-25T03:03:59.315Z,95.80
2022-08-25T03:06:02.468Z,95.80
2022-08-25T03:08:06.175Z,95.80
2022-08-25T03:10:14.742Z,95.80
2022-08-25T03:12:17.215Z,95.70
2022-08-25T03:14:19.264Z,95.70
2022-08-25T03:16:21.578Z,95.70
2022-08-25T03:18:23.581Z,95.60
2022-08-25T03:20:27.947Z,95.60
2022-08-25T03:22:29.900Z,95.50
2022-08-25T03:24:32.889Z,95.60
2022-08-25T03:26:53.383Z,95.60
2022-08-25T03:28:55.960Z,95.70
2022-08-25T03:31:00.389Z,95.70
2022-08-25T03:33:03.326Z,95.70
2022-08-25T03:35:05.772Z,95.70
2022-08-25T03:37:08.611Z,95.70
2022-08-25T03:39:10.874Z,95.60
2022-08-25T03:41:29.262Z,95.50
2022-08-25T03:43:31.838Z,95.70
2022-08-25T03:45:34.094Z,95.50
2022-08-25T03:47:36.218Z,95.50
2022-08-25T03:49:38.248Z,95.60
2022-08-25T03:51:43.115Z,95.60
2022-08-25T03:53:45.441Z,95.80
2022-08-25T03:55:47.945Z,95.80
2022-08-25T03:57:50.600Z,95.90
2022-08-25T03:59:53.595Z,96.00
2022-08-25T04:01:55.796Z,95.90
2022-08-25T04:03:58.035Z,96.10
2022-08-25T04:06:04.937Z,96.10
2022-08-25T04:08:08.124Z,96.10
2022-08-25T04:10:12.556Z,96.20
2022-08-25T04:12:14.630Z,96.20
2022-08-25T04:14:16.869Z,96.20
2022-08-25T04:16:24.917Z,96.00
2022-08-25T04:18:31.352Z,96.10
2022-08-25T04:20:33.315Z,96.10
2022-08-25T04:22:36.986Z,96.10
2022-08-25T04:24:39.468Z,96.10
2022-08-25T04:26:45.344Z,96.50
2022-08-25T04:28:50.208Z,96.10
2022-08-25T04:30:52.345Z,96.20
2022-08-25T04:32:54.390Z,96.30
2022-08-25T04:34:57.104Z,96.40
2022-08-25T04:37:01.815Z,96.40
2022-08-25T04:39:04.589Z,96.60
2022-08-25T04:41:07.947Z,96.60
2022-08-25T04:43:10.223Z,96.70
2022-08-25T04:45:12.265Z,96.80
2022-08-25T04:47:14.357Z,96.70
2022-08-25T04:49:16.389Z,96.80
2022-08-25T04:51:24.846Z,96.80
2022-08-25T04:53:26.889Z,97.00
2022-08-25T04:55:28.998Z,97.00
2022-08-25T04:57:31.087Z,96.90
2022-08-25T04:59:33.589Z,96.90
2022-08-25T05:01:36.480Z,96.90
2022-08-25T05:03:39.051Z,96.80
2022-08-25T05:05:41.162Z,96.70
2022-08-25T05:07:43.197Z,96.80
2022-08-25T05:09:45.206Z,97.00
2022-08-25T05:11:47.346Z,97.10
2022-08-25T05:13:51.799Z,97.00
2022-08-25T05:16:00.206Z,96.80
2022-08-25T05:18:02.773Z,96.60
2022-08-25T05:20:05.534Z,96.30
2022-08-25T05:22:07.538Z,96.20
2022-08-25T05:24:09.643Z,96.10
2022-08-25T05:26:22.022Z,96.10
2022-08-25T05:28:24.389Z,96.10
2022-08-25T05:30:26.669Z,96.10
2022-08-25T05:32:31.276Z,96.10
2022-08-25T05:34:33.335Z,96.10
2022-08-25T05:36:36.456Z,95.90
2022-08-25T05:38:40.998Z,95.80
2022-08-25T05:40:42.999Z,95.60
2022-08-25T05:42:44.989Z,95.70
2022-08-25T05:44:47.470Z,95.70
2022-08-25T05:46:49.867Z,95.50
2022-08-25T05:48:53.433Z,95.30
2022-08-25T05:50:57.825Z,95.10
2022-08-25T05:52:59.888Z,95.20
2022-08-25T05:55:01.955Z,95.20
2022-08-25T05:57:04.159Z,95.10
2022-08-25T05:59:09.286Z,95.10
2022-08-25T06:01:43.462Z,95.10
2022-08-25T06:03:47.919Z,95.10
2022-08-25T06:05:50.306Z,95.10
2022-08-25T06:07:52.934Z,95.00
2022-08-25T06:09:55.363Z,95.00
2022-08-25T06:11:57.643Z,94.80
2022-08-25T06:13:59.573Z,94.70
2022-08-25T06:16:01.845Z,94.70
2022-08-25T06:18:03.987Z,94.90
2022-08-25T06:20:07.099Z,94.90
2022-08-25T06:22:09.024Z,94.80
2022-08-25T06:24:15.163Z,94.70
2022-08-25T06:26:20.613Z,94.40
2022-08-25T06:28:23.857Z,94.40
2022-08-25T06:30:29.283Z,94.30
2022-08-25T06:32:36.791Z,94.20
2022-08-25T06:34:39.009Z,94.20
2022-08-25T06:36:42.153Z,94.20
2022-08-25T06:38:44.260Z,93.80
2022-08-25T06:40:49.197Z,93.50
2022-08-25T06:42:51.384Z,93.30
2022-08-25T06:44:56.238Z,93.10
2022-08-25T06:46:58.473Z,93.20
2022-08-25T06:49:01.033Z,93.10
2022-08-25T06:51:10.241Z,93.00
2022-08-25T06:53:16.463Z,92.80
2022-08-25T06:55:18.729Z,92.40
2022-08-25T06:57:20.753Z,92.20
2022-08-25T06:59:22.793Z,92.00
2022-08-25T07:01:27.298Z,91.80
2022-08-25T07:03:29.924Z,91.30
2022-08-25T07:05:43.531Z,91.10
2022-08-25T07:07:46.547Z,90.90
2022-08-25T07:09:48.585Z,91.10
2022-08-25T07:11:50.573Z,90.50
2022-08-25T07:13:52.815Z,90.40
2022-08-25T07:15:55.895Z,90.30
2022-08-25T07:17:58.012Z,90.10
2022-08-25T07:20:00.284Z,89.60
2022-08-25T07:22:02.644Z,89.40
2022-08-25T07:24:10.462Z,88.90
2022-08-25T07:26:37.384Z,89.30
2022-08-25T07:28:47.321Z,89.40
2022-08-25T07:30:52.140Z,88.70
2022-08-25T07:32:55.571Z,88.80
2022-08-25T07:35:15.649Z,88.90
2022-08-25T07:37:47.607Z,88.60
2022-08-25T07:39:45.054Z,88.00
2022-08-25T07:41:47.024Z,88.00
2022-08-25T07:43:54.293Z,87.80
2022-08-25T07:45:56.320Z,88.40
2022-08-25T07:48:00.977Z,88.00
2022-08-25T07:50:03.641Z,87.80
2022-08-25T07:52:09.054Z,86.90
2022-08-25T07:54:11.265Z,86.00
2022-08-25T07:56:16.007Z,85.80
2022-08-25T07:58:18.352Z,85.20
2022-08-25T08:00:21.069Z,84.50
2022-08-25T08:02:24.702Z,84.40
2022-08-25T08:04:26.924Z,83.40
2022-08-25T08:06:30.403Z,82.80
2022-08-25T08:08:32.649Z,82.60
2022-08-25T08:10:54.067Z,82.30
2022-08-25T08:12:58.823Z,82.00
2022-08-25T08:15:01.783Z,80.70
2022-08-25T08:17:10.404Z,80.60
2022-08-25T08:19:13.676Z,80.20
2022-08-25T08:21:28.979Z,80.30
2022-08-25T08:23:31.954Z,80.10
2022-08-25T08:25:34.597Z,80.10
2022-08-25T08:27:37.053Z,79.20
2022-08-25T08:29:40.207Z,78.30
2022-08-25T08:31:48.744Z,77.90
2022-08-25T08:33:55.008Z,77.40
2022-08-25T08:36:09.340Z,76.20
2022-08-25T08:38:17.364Z,76.10
2022-08-25T08:40:22.992Z,75.50
2022-08-25T08:42:39.863Z,74.90
2022-08-25T08:44:59.159Z,75.40
2022-08-25T08:47:36.346Z,75.30
2022-08-25T08:49:58.380Z,75.20
2022-08-25T08:52:03.145Z,75.60
2022-08-25T08:54:15.203Z,76.10
2022-08-25T08:56:30.800Z,76.30
2022-08-25T08:58:41.743Z,76.80
2022-08-25T09:00:52.061Z,75.10
2022-08-25T09:03:07.580Z,74.80
2022-08-25T09:05:14.970Z,74.60
2022-08-25T09:07:21.676Z,74.40
2022-08-25T09:09:29.058Z,74.90
2022-08-25T09:11:40.200Z,73.30
2022-08-25T09:14:02.160Z,72.10
2022-08-25T09:16:50.490Z,72.10
2022-08-25T09:19:23.639Z,71.90
2022-08-25T09:21:41.117Z,70.90
2022-08-25T09:24:05.182Z,69.20
2022-08-25T09:26:36.168Z,67.20
2022-08-25T09:28:55.209Z,67.60
2022-08-25T09:31:03.937Z,68.30
2022-08-25T09:33:07.180Z,67.30
2022-08-25T09:35:19.496Z,65.90
2022-08-25T09:37:25.040Z,64.00
2022-08-25T09:39:27.898Z,62.30
2022-08-25T09:41:45.845Z,63.20
2022-08-25T09:43:54.764Z,62.80
2022-08-25T09:46:08.869Z,61.10
2022-08-25T09:48:21.158Z,61.60
2022-08-25T09:50:25.060Z,58.10
2022-08-25T09:52:32.722Z,59.10
2022-08-25T09:54:44.362Z,58.00
2022-08-25T09:56:56.351Z,58.60
2022-08-25T09:59:34.220Z,57.70
2022-08-25T10:01:48.955Z,54.10
2022-08-25T10:03:57.003Z,54.80
2022-08-25T10:06:06.775Z,54.90
2022-08-25T10:08:40.734Z,53.30
2022-08-25T10:10:53.022Z,54.40
2022-08-25T10:12:58.265Z,53.10
2022-08-25T10:15:00.272Z,52.90
2022-08-25T10:17:29.871Z,52.90
2022-08-25T10:19:31.912Z,53.00
2022-08-25T10:21:35.293Z,52.50
2022-08-25T10:23:46.410Z,50.60
2022-08-25T10:25:59.468Z,50.30
2022-08-25T10:28:22.866Z,49.50
2022-08-25T10:30:39.343Z,46.70
2022-08-25T10:32:46.904Z,47.50
2022-08-25T10:34:53.794Z,47.60
2022-08-25T10:37:17.431Z,47.90
2022-08-25T10:39:55.711Z,46.50
2022-08-25T10:42:10.482Z,46.40
2022-08-25T10:44:56.323Z,46.10
2022-08-25T10:47:26.034Z,44.60
2022-08-25T10:49:45.440Z,42.70
2022-08-25T10:52:14.335Z,42.40
2022-08-25T10:54:34.287Z,42.70
2022-08-25T10:56:41.877Z,43.70
2022-08-25T10:58:57.052Z,44.60
2022-08-25T11:01:16.595Z,43.20
2022-08-25T11:03:38.560Z,44.80
2022-08-25T11:05:58.201Z,43.40
2022-08-25T11:08:36.955Z,42.70
2022-08-25T11:10:53.024Z,44.50
2022-08-25T11:12:57.774Z,43.80
2022-08-25T11:15:04.174Z,43.60
2022-08-25T11:17:15.354Z,42.90
2022-08-25T11:19:38.114Z,42.80
2022-08-25T11:21:46.287Z,43.70
2022-08-25T11:24:03.340Z,43.90
2022-08-25T11:26:13.230Z,43.90
2022-08-25T11:28:31.111Z,45.20
2022-08-25T11:30:33.335Z,42.50
2022-08-25T11:32:38.146Z,43.50
2022-08-25T11:34:43.618Z,42.50
2022-08-25T11:36:56.466Z,42.20
2022-08-25T11:39:12.292Z,42.90
2022-08-25T11:41:43.826Z,40.30
2022-08-25T11:44:34.425Z,39.60
2022-08-25T11:46:50.369Z,40.60
2022-08-25T11:49:02.175Z,39.30
2022-08-25T11:51:10.740Z,39.90
2022-08-25T11:53:28.110Z,39.70
2022-08-25T11:55:47.998Z,40.50
2022-08-25T11:57:53.784Z,40.00
2022-08-25T12:00:07.348Z,38.60
2022-08-25T12:02:36.370Z,40.40
2022-08-25T12:04:45.083Z,41.20
2022-08-25T12:07:07.486Z,40.90
2022-08-25T12:09:13.302Z,39.00
2022-08-25T12:11:38.324Z,39.70
2022-08-25T12:13:48.370Z,38.90
2022-08-25T12:15:50.345Z,38.50
2022-08-25T12:18:26.712Z,38.30
2022-08-25T12:21:06.906Z,39.40
2022-08-25T12:23:09.474Z,37.50
2022-08-25T12:25:33.787Z,38.00
2022-08-25T12:28:09.278Z,37.50
2022-08-25T12:30:23.377Z,37.90
2022-08-25T12:32:56.206Z,37.10
2022-08-25T12:35:07.065Z,36.40
2022-08-25T12:37:24.102Z,37.70
2022-08-25T12:39:33.217Z,36.10
2022-08-25T12:41:36.248Z,36.60
2022-08-25T12:43:42.331Z,38.00
2022-08-25T12:45:47.681Z,37.30
2022-08-25T12:47:50.963Z,38.00
2022-08-25T12:49:54.813Z,37.50
2022-08-25T12:52:19.806Z,37.30
2022-08-25T12:54:36.843Z,36.90
2022-08-25T12:56:49.940Z,36.20
2022-08-25T12:59:44.742Z,38.10
2022-08-25T13:02:16.495Z,36.50
2022-08-25T13:04:45.811Z,36.60
2022-08-25T13:07:21.459Z,37.30
2022-08-25T13:10:12.986Z,35.40
2022-08-25T13:12:39.300Z,37.10
2022-08-25T13:14:43.986Z,33.20
2022-08-25T13:16:57.609Z,34.50
2022-08-25T13:19:05.206Z,35.50
2022-08-25T13:21:19.569Z,35.80
2022-08-25T13:23:27.699Z,34.10
2022-08-25T13:25:33.308Z,35.90
2022-08-25T13:27:37.282Z,36.10
2022-08-25T13:29:52.176Z,36.10
2022-08-25T13:32:01.396Z,35.70
2022-08-25T13:34:06.997Z,36.70
2022-08-25T13:36:35.779Z,36.30
2022-08-25T13:38:38.390Z,36.30
2022-08-25T13:40:41.526Z,36.20
2022-08-25T13:42:56.091Z,35.20
2022-08-25T13:44:59.363Z,35.00
2022-08-25T13:47:43.483Z,35.10
2022-08-25T13:49:48.099Z,33.30
2022-08-25T13:51:53.426Z,34.50
2022-08-25T13:54:00.494Z,34.30
2022-08-25T13:56:03.772Z,34.20
2022-08-25T13:58:14.152Z,35.00
2022-08-25T14:00:38.963Z,33.30
2022-08-25T14:02:49.945Z,35.40
2022-08-25T14:04:52.873Z,35.70
2022-08-25T14:07:20.319Z,34.90
2022-08-25T14:09:28.171Z,33.40
2022-08-25T14:11:56.916Z,35.30
2022-08-25T14:14:03.111Z,34.90
2022-08-25T14:16:14.372Z,34.90
2022-08-25T14:18:27.137Z,34.90
2022-08-25T14:20:31.603Z,33.90
2022-08-25T14:22:33.729Z,34.40
2022-08-25T14:24:40.721Z,34.30
2022-08-25T14:26:53.855Z,34.70
2022-08-25T14:28:56.807Z,35.00
2022-08-25T14:31:08.399Z,36.00
2022-08-25T14:33:11.582Z,36.30
2022-08-25T14:35:13.548Z,36.00
2022-08-25T14:37:20.311Z,35.10
2022-08-25T14:39:27.852Z,35.30
2022-08-25T14:41:29.787Z,36.20
2022-08-25T14:43:32.406Z,36.20
2022-08-25T14:45:37.936Z,36.20
2022-08-25T14:47:40.908Z,34.90
2022-08-25T14:49:45.850Z,36.10
2022-08-25T14:51:49.370Z,35.60
2022-08-25T14:53:54.046Z,35.70
2022-08-25T14:55:59.033Z,36.20
2022-08-25T14:58:01.380Z,36.30
2022-08-25T15:00:07.124Z,37.20
2022-08-25T15:02:20.094Z,36.70
2022-08-25T15:04:27.548Z,35.50
2022-08-25T15:06:29.976Z,35.50
2022-08-25T15:08:50.759Z,36.90
2022-08-25T15:10:52.661Z,36.20
2022-08-25T15:12:54.834Z,36.20
2022-08-25T15:14:58.264Z,36.00
2022-08-25T15:17:01.675Z,36.00
2022-08-25T15:19:08.844Z,37.10
2022-08-25T15:21:12.862Z,36.30
2022-08-25T15:23:18.575Z,36.80
2022-08-25T15:25:21.902Z,36.00
2022-08-25T15:27:26.133Z,36.70
2022-08-25T15:29:34.942Z,37.30
2022-08-25T15:31:37.290Z,37.40
2022-08-25T15:33:39.691Z,36.80
2022-08-25T15:35:41.732Z,37.00
2022-08-25T15:37:48.141Z,36.90
2022-08-25T15:39:50.110Z,37.40
2022-08-25T15:41:52.547Z,37.20
2022-08-25T15:43:54.727Z,37.10
2022-08-25T15:45:58.562Z,37.30
2022-08-25T15:48:02.450Z,37.80
2022-08-25T15:50:08.981Z,37.70
2022-08-25T15:52:13.606Z,37.90
2022-08-25T15:54:15.893Z,37.30
2022-08-25T15:56:26.932Z,37.30
2022-08-25T15:58:29.065Z,37.10
2022-08-25T16:00:31.825Z,37.40
2022-08-25T16:02:34.768Z,37.90
2022-08-25T16:04:36.897Z,38.70
2022-08-25T16:06:39.377Z,38.20
2022-08-25T16:08:43.123Z,38.30
2022-08-25T16:10:45.174Z,38.80
2022-08-25T16:12:47.464Z,39.00
2022-08-25T16:14:50.639Z,38.00
2022-08-25T16:16:58.018Z,37.50
2022-08-25T16:19:01.509Z,38.70
2022-08-25T16:21:03.858Z,38.40
2022-08-25T16:23:16.360Z,38.10
2022-08-25T16:25:23.109Z,38.30
2022-08-25T16:27:25.224Z,37.80
2022-08-25T16:29:27.194Z,37.60
2022-08-25T16:31:38.456Z,38.10
2022-08-25T16:35:44.134Z,38.80
2022-08-25T16:37:46.118Z,39.10
2022-08-25T16:39:54.886Z,38.80
2022-08-25T16:41:57.707Z,39.10
2022-08-25T16:44:07.717Z,38.90
2022-08-25T16:46:17.613Z,38.80
2022-08-25T16:48:20.658Z,38.20
2022-08-25T16:50:24.756Z,38.40
2022-08-25T16:52:52.718Z,39.50
2022-08-25T16:55:13.124Z,40.00
2022-08-25T16:57:16.957Z,40.20
2022-08-25T16:59:20.134Z,40.10
2022-08-25T17:01:23.062Z,40.60
2022-08-25T17:03:24.995Z,41.20
2022-08-25T17:05:28.778Z,40.70
2022-08-25T17:07:30.739Z,40.90
2022-08-25T17:09:33.623Z,41.60
2022-08-25T17:11:43.048Z,41.80
2022-08-25T17:13:49.707Z,42.00
2022-08-25T17:15:52.285Z,40.70
2022-08-25T17:17:54.682Z,41.40
2022-08-25T17:19:56.608Z,41.80
2022-08-25T17:21:58.795Z,41.80
2022-08-25T17:24:01.615Z,41.20
2022-08-25T17:26:08.651Z,40.70
2022-08-25T17:28:15.004Z,40.40
2022-08-25T17:30:16.977Z,41.20
2022-08-25T17:32:19.580Z,41.90
2022-08-25T17:34:23.199Z,42.70
2022-08-25T17:36:26.879Z,43.40
2022-08-25T17:38:30.234Z,43.70
2022-08-25T17:40:35.852Z,44.40
2022-08-25T17:42:37.992Z,45.00
2022-08-25T17:44:39.934Z,45.20
2022-08-25T17:46:47.505Z,45.60
2022-08-25T17:48:50.730Z,46.10
2022-08-25T17:50:53.336Z,46.20
2022-08-25T17:52:55.416Z,46.30
2022-08-25T17:54:58.915Z,46.80
2022-08-25T17:57:00.982Z,47.40
2022-08-25T17:59:02.970Z,48.80
2022-08-25T18:01:06.149Z,47.60
2022-08-25T18:03:08.504Z,49.70
2022-08-25T18:05:13.021Z,51.20
2022-08-25T18:07:14.958Z,55.10
2022-08-25T18:09:17.459Z,54.10
2022-08-25T18:11:20.503Z,54.70
2022-08-25T18:13:22.787Z,56.70
2022-08-25T18:15:25.074Z,57.50
2022-08-25T18:17:31.409Z,57.40
2022-08-25T18:19:33.519Z,59.20
2022-08-25T18:21:36.165Z,61.00
2022-08-25T18:23:38.567Z,61.40
2022-08-25T18:25:41.906Z,61.40
2022-08-25T18:27:45.242Z,63.00
2022-08-25T18:29:47.077Z,63.60
2022-08-25T18:31:49.866Z,62.80
2022-08-25T18:33:53.915Z,63.20
2022-08-25T18:35:56.674Z,64.60
2022-08-25T18:38:17.451Z,66.30
2022-08-25T18:40:25.755Z,66.60
2022-08-25T18:42:28.933Z,67.80
2022-08-25T18:44:31.717Z,68.80
2022-08-25T18:46:33.806Z,69.50
2022-08-25T18:48:35.887Z,70.00
2022-08-25T18:50:41.764Z,70.40
2022-08-25T18:52:45.740Z,71.20
2022-08-25T18:54:47.721Z,71.50
2022-08-25T18:56:51.347Z,72.90
2022-08-25T18:58:53.772Z,73.40
2022-08-25T19:00:56.449Z,73.50
2022-08-25T19:03:00.407Z,74.20
2022-08-25T19:05:07.532Z,74.30
2022-08-25T19:07:10.041Z,75.40
2022-08-25T19:09:12.288Z,76.20
2022-08-25T19:11:14.462Z,77.60
2022-08-25T19:13:22.624Z,78.80
2022-08-25T19:15:26.660Z,79.10
2022-08-25T19:17:28.494Z,79.70
2022-08-25T19:19:39.512Z,81.00
2022-08-25T19:21:42.487Z,79.90
2022-08-25T19:23:44.388Z,80.00
2022-08-25T19:25:46.765Z,79.90
2022-08-25T19:27:50.741Z,80.50
2022-08-25T19:29:53.727Z,81.30
2022-08-25T19:31:56.816Z,81.80
2022-08-25T19:34:04.739Z,81.70
2022-08-25T19:36:08.778Z,81.60
2022-08-25T19:38:35.213Z,82.00
2022-08-25T19:40:37.951Z,82.40
2022-08-25T19:42:41.115Z,82.30
2022-08-25T19:44:43.754Z,82.70
2022-08-25T19:46:46.560Z,83.40
2022-08-25T19:48:48.852Z,84.30
2022-08-25T19:50:56.026Z,83.90
2022-08-25T19:52:58.355Z,84.00
2022-08-25T19:55:02.856Z,84.50
2022-08-25T19:57:07.882Z,84.80
2022-08-25T19:59:12.933Z,85.30
2022-08-25T20:01:18.187Z,85.10
2022-08-25T20:03:21.595Z,85.40
2022-08-25T20:05:24.924Z,86.10
2022-08-25T20:07:30.537Z,86.40
2022-08-25T20:09:38.936Z,86.10
2022-08-25T20:11:42.619Z,86.70
2022-08-25T20:13:44.622Z,87.10
2022-08-25T20:15:47.166Z,87.50
2022-08-25T20:17:49.154Z,88.30
2022-08-25T20:19:53.750Z,88.80
2022-08-25T20:21:55.919Z,89.70
2022-08-25T20:24:16.912Z,89.50
2022-08-25T20:26:18.964Z,90.00
2022-08-25T20:28:21.184Z,90.00
2022-08-25T20:30:26.935Z,89.60
2022-08-25T20:32:29.156Z,89.10
2022-08-25T20:34:31.250Z,88.80
2022-08-25T20:36:37.729Z,88.60
2022-08-25T20:38:44.594Z,88.80
2022-08-25T20:40:49.182Z,89.50
2022-08-25T20:42:51.126Z,89.70
2022-08-25T20:44:53.641Z,90.10
2022-08-25T20:46:58.372Z,90.50
2022-08-25T20:49:01.370Z,90.80
2022-08-25T20:51:07.215Z,91.10
2022-08-25T20:53:10.192Z,91.50
2022-08-25T20:55:17.577Z,91.50
2022-08-25T20:57:25.503Z,91.70
2022-08-25T20:59:28.094Z,91.90
2022-08-25T21:01:39.770Z,91.90
2022-08-25T21:03:42.285Z,92.20
2022-08-25T21:05:44.406Z,92.40
2022-08-25T21:07:46.382Z,92.40
2022-08-25T21:09:51.406Z,92.70
2022-08-25T21:11:55.781Z,92.70
2022-08-25T21:13:58.831Z,92.80
2022-08-25T21:16:02.563Z,92.50
2022-08-25T21:18:08.439Z,92.70
2022-08-25T21:20:17.233Z,92.90
2022-08-25T21:22:19.533Z,92.70
2022-08-25T21:24:22.056Z,92.10
2022-08-25T21:26:27.416Z,92.10
2022-08-25T21:28:29.974Z,92.50
2022-08-25T21:30:34.276Z,93.10
2022-08-25T21:32:36.769Z,93.40
2022-08-25T21:34:39.708Z,93.80
2022-08-25T21:36:42.265Z,94.40
2022-08-25T21:38:44.222Z,94.40
2022-08-25T21:40:46.131Z,94.30
2022-08-25T21:42:51.393Z,94.20
2022-08-25T21:44:53.575Z,94.40
2022-08-25T21:46:56.258Z,94.60
2022-08-25T21:48:59.946Z,94.60
2022-08-25T21:51:09.071Z,94.80
2022-08-25T21:53:12.020Z,95.70
2022-08-25T21:55:15.994Z,95.10
2022-08-25T21:57:23.643Z,95.60
2022-08-25T21:59:29.872Z,95.50
2022-08-25T22:01:31.804Z,95.20
2022-08-25T22:03:35.144Z,94.80
2022-08-25T22:05:39.415Z,94.80
2022-08-25T22:07:44.189Z,94.60
2022-08-25T22:09:46.239Z,94.50
2022-08-25T22:11:50.853Z,94.00
2022-08-25T22:13:54.133Z,93.80
2022-08-25T22:15:56.083Z,93.70
2022-08-25T22:17:58.111Z,93.50
2022-08-25T22:20:00.853Z,93.50
2022-08-25T22:22:03.685Z,93.70
2022-08-25T22:24:05.844Z,93.70
2022-08-25T22:26:07.872Z,93.60
2022-08-25T22:28:14.531Z,93.60
2022-08-25T22:30:17.076Z,93.60
2022-08-25T22:32:19.145Z,93.80
2022-08-25T22:34:30.356Z,94.00
2022-08-25T22:36:36.728Z,94.20
2022-08-25T22:38:38.638Z,94.30
2022-08-25T22:40:41.284Z,94.50
2022-08-25T22:42:47.781Z,94.70
2022-08-25T22:44:50.447Z,94.90
2022-08-25T22:46:52.777Z,95.20
2022-08-25T22:48:55.599Z,95.50
2022-08-25T22:51:05.360Z,95.90
2022-08-25T22:53:09.237Z,96.10
2022-08-25T22:55:13.282Z,96.50
2022-08-25T22:57:15.258Z,96.60
2022-08-25T22:59:17.361Z,96.70
2022-08-25T23:01:20.645Z,97.10
2022-08-25T23:03:22.705Z,97.60
2022-08-25T23:05:24.650Z,98.00
2022-08-25T23:07:26.756Z,98.40
2022-08-25T23:09:28.650Z,98.60
2022-08-25T23:11:30.759Z,99.00
2022-08-25T23:13:34.213Z,99.20
2022-08-25T23:15:36.590Z,99.40
2022-08-25T23:17:38.922Z,99.70
2022-08-25T23:19:40.852Z,99.90
2022-08-25T23:22:03.002Z,99.90
2022-08-25T23:24:05.478Z,99.90
2022-08-25T23:26:07.865Z,99.90
2022-08-25T23:28:09.767Z,99.80
2022-08-25T23:30:13.286Z,99.90
2022-08-25T23:32:17.607Z,99.90
2022-08-25T23:34:20.626Z,99.90
2022-08-25T23:36:23.485Z,99.90
2022-08-25T23:38:25.507Z,99.90
2022-08-25T23:40:30.235Z,99.90
2022-08-25T23:42:33.555Z,99.90
2022-08-25T23:44:36.780Z,99.90
2022-08-25T23:46:39.187Z,99.90
2022-08-25T23:48:41.412Z,99.90
2022-08-25T23:50:48.141Z,99.90
2022-08-25T23:52:56.189Z,99.90
2022-08-25T23:54:58.238Z,99.90
2022-08-25T23:57:00.984Z,99.90
2022-08-25T23:59:04.520Z,99.90
